Time;durP1;ratioP1;P1;durP2;ratioP2;P2;SDS_P1;SDS_P2;PMS_P1;PMS_P2;Temp;Humidity;BMP_temperature;BMP_pressure;BME280_temperature;BME280_humidity;BME280_pressure;Samples;Min_cycle;Max_cycle;Signal;HPM_P1;HPM_P2
2021/05/31 00:02:04;;;;;;;32.40;18.05;;;10.40;91.00;;;;;;5069219;28;20408;-57
2021/05/31 00:04:32;;;;;;;28.08;18.02;;;10.40;90.80;;;;;;5055452;28;20037;-56
2021/05/31 00:07:13;;;;;;;28.58;17.48;;;10.40;91.00;;;;;;5039332;28;20051;-56
2021/05/31 00:09:41;;;;;;;33.05;17.27;;;10.40;90.80;;;;;;5056571;28;20040;-58
2021/05/31 00:12:10;;;;;;;33.97;18.25;;;10.40;90.80;;;;;;5069934;28;20473;-57
2021/05/31 00:14:36;;;;;;;31.85;18.48;;;10.40;91.00;;;;;;5055279;28;20037;-57
2021/05/31 00:17:02;;;;;;;30.63;18.65;;;10.30;90.90;;;;;;5061421;28;20052;-57
2021/05/31 00:19:27;;;;;;;30.67;17.83;;;10.20;90.90;;;;;;5062502;28;20571;-57
2021/05/31 00:21:54;;;;;;;32.83;19.98;;;10.20;91.20;;;;;;5060726;28;20094;-57
2021/05/31 00:24:20;;;;;;;26.65;17.98;;;10.10;91.20;;;;;;5064995;28;20033;-57
2021/05/31 00:26:46;;;;;;;32.50;18.73;;;10.10;91.20;;;;;;5058104;28;20040;-57
2021/05/31 00:29:11;;;;;;;34.10;19.40;;;10.20;91.20;;;;;;5056538;28;20060;-57
2021/05/31 00:31:37;;;;;;;33.30;18.60;;;10.10;91.30;;;;;;5052850;28;20033;-57
2021/05/31 00:34:03;;;;;;;35.83;18.88;;;10.00;91.30;;;;;;5057097;28;20033;-57
2021/05/31 00:36:29;;;;;;;34.22;19.70;;;10.00;91.50;;;;;;5055611;28;20057;-57
2021/05/31 00:38:56;;;;;;;33.00;19.27;;;10.00;91.30;;;;;;5047680;28;20043;-56
2021/05/31 00:41:23;;;;;;;31.45;19.65;;;9.90;91.40;;;;;;5052700;28;20041;-57
2021/05/31 00:43:50;;;;;;;35.83;18.25;;;9.90;91.50;;;;;;5060548;28;20049;-56
2021/05/31 00:46:16;;;;;;;34.67;19.50;;;9.90;91.50;;;;;;5069784;28;20441;-57
2021/05/31 00:48:43;;;;;;;29.27;19.73;;;9.80;91.30;;;;;;5038504;28;20056;-57
2021/05/31 00:51:11;;;;;;;34.13;19.70;;;9.80;91.60;;;;;;5066676;28;20041;-57
2021/05/31 00:53:37;;;;;;;35.83;21.55;;;9.80;91.70;;;;;;5036771;28;20114;-57
2021/05/31 00:56:04;;;;;;;33.28;19.55;;;9.80;91.50;;;;;;5063653;28;20063;-57
2021/05/31 00:58:31;;;;;;;36.00;20.13;;;9.80;91.60;;;;;;5072541;28;20048;-56
2021/05/31 01:00:59;;;;;;;33.78;20.70;;;9.70;91.70;;;;;;5064841;28;20033;-57
2021/05/31 01:03:26;;;;;;;40.67;21.48;;;9.70;91.90;;;;;;5052387;28;20048;-57
2021/05/31 01:05:54;;;;;;;36.67;21.67;;;9.80;91.70;;;;;;5056927;28;20520;-57
2021/05/31 01:08:25;;;;;;;36.03;20.40;;;9.80;91.60;;;;;;5061166;28;20504;-56
2021/05/31 01:11:01;;;;;;;32.80;20.30;;;9.80;91.70;;;;;;5060754;28;20128;-57
2021/05/31 01:13:44;;;;;;;32.17;19.98;;;9.80;91.70;;;;;;5056556;28;20040;-57
2021/05/31 01:16:18;;;;;;;41.10;20.77;;;9.60;91.80;;;;;;5034282;28;20051;-57
2021/05/31 01:18:46;;;;;;;33.95;20.85;;;9.60;91.90;;;;;;5052633;28;20044;-57
2021/05/31 01:21:26;;;;;;;32.50;20.92;;;9.60;92.10;;;;;;5054391;28;20039;-57
2021/05/31 01:24:27;;;;;;;34.55;22.75;;;9.50;92.10;;;;;;5053788;28;20052;-57
2021/05/31 01:27:20;;;;;;;37.22;20.67;;;9.70;91.70;;;;;;5050860;28;20044;-57
2021/05/31 01:30:08;;;;;;;39.95;22.25;;;9.60;91.80;;;;;;5056303;28;20638;-57
2021/05/31 01:32:51;;;;;;;36.90;20.85;;;9.60;91.70;;;;;;5060340;28;20473;-57
2021/05/31 01:35:26;;;;;;;35.83;18.95;;;9.60;92.00;;;;;;5055552;28;20032;-57
2021/05/31 01:37:55;;;;;;;35.88;20.08;;;9.60;91.70;;;;;;5059521;28;20049;-56
2021/05/31 01:40:23;;;;;;;36.58;21.23;;;9.60;91.70;;;;;;5065537;28;20040;-57
2021/05/31 01:42:53;;;;;;;41.58;21.55;;;9.50;91.70;;;;;;5053938;28;20076;-57
2021/05/31 01:45:20;;;;;;;34.47;21.58;;;9.50;92.00;;;;;;5050624;28;20509;-57
2021/05/31 01:47:46;;;;;;;37.17;21.95;;;9.40;92.00;;;;;;5061129;28;20543;-57
2021/05/31 01:50:13;;;;;;;34.03;20.23;;;9.40;92.10;;;;;;5055203;28;20033;-57
2021/05/31 01:52:41;;;;;;;42.72;22.20;;;9.40;92.00;;;;;;5071787;28;20048;-57
2021/05/31 01:55:10;;;;;;;35.88;21.30;;;9.40;92.10;;;;;;5067242;28;20411;-56
2021/05/31 01:57:36;;;;;;;33.85;21.48;;;9.40;92.00;;;;;;5053614;28;20044;-56
2021/05/31 02:00:05;;;;;;;39.60;21.38;;;9.40;92.00;;;;;;5059079;28;20045;-56
2021/05/31 02:02:31;;;;;;;39.03;22.23;;;9.30;92.20;;;;;;5051904;28;20047;-57
2021/05/31 02:04:57;;;;;;;37.88;21.73;;;9.20;92.10;;;;;;5061182;28;20052;-57
2021/05/31 02:07:28;;;;;;;38.22;21.73;;;9.20;92.30;;;;;;5071052;28;20052;-57
2021/05/31 02:09:54;;;;;;;37.55;21.80;;;9.20;92.40;;;;;;5060262;28;20048;-57
2021/05/31 02:12:22;;;;;;;40.63;23.45;;;9.30;92.40;;;;;;5061212;28;20528;-58
2021/05/31 02:15:05;;;;;;;36.65;21.95;;;9.20;92.30;;;;;;5064625;28;20041;-57
2021/05/31 02:17:41;;;;;;;34.22;22.05;;;9.10;92.60;;;;;;5051516;28;20040;-57
2021/05/31 02:20:12;;;;;;;41.38;23.08;;;9.10;92.80;;;;;;5052822;28;20179;-57
2021/05/31 02:22:43;;;;;;;40.92;22.95;;;9.00;92.80;;;;;;5064518;28;20045;-57
2021/05/31 02:25:12;;;;;;;34.33;17.60;;;9.00;93.00;;;;;;5046599;28;20053;-57
2021/05/31 02:27:38;;;;;;;37.10;22.52;;;9.20;92.80;;;;;;5053739;28;20056;-57
2021/05/31 02:30:06;;;;;;;44.88;22.08;;;9.10;92.80;;;;;;5060135;28;20045;-57
2021/05/31 02:32:31;;;;;;;58.28;21.40;;;9.00;93.10;;;;;;5051974;28;20072;-57
2021/05/31 02:34:58;;;;;;;41.85;20.85;;;9.10;93.10;;;;;;5052002;28;20087;-56
2021/05/31 02:37:44;;;;;;;52.25;23.08;;;9.10;93.20;;;;;;5052701;28;20041;-57
2021/05/31 02:40:10;;;;;;;50.20;24.17;;;9.00;93.30;;;;;;5059184;28;20048;-57
2021/05/31 02:42:48;;;;;;;52.35;24.85;;;8.90;93.50;;;;;;5052842;28;20071;-52
2021/05/31 02:45:15;;;;;;;51.10;23.98;;;8.90;93.50;;;;;;5068203;28;20135;-52
2021/05/31 02:47:41;;;;;;;56.28;24.30;;;8.90;93.80;;;;;;5060598;28;20142;-54
2021/05/31 02:50:08;;;;;;;53.05;23.08;;;8.90;93.90;;;;;;5058821;28;20033;-55
2021/05/31 02:52:39;;;;;;;39.17;22.88;;;8.90;94.10;;;;;;5060643;28;20044;-53
2021/05/31 02:55:06;;;;;;;52.63;23.33;;;8.90;93.70;;;;;;5070355;28;20106;-54
2021/05/31 02:57:32;;;;;;;58.22;22.73;;;8.90;94.10;;;;;;5043714;28;20098;-56
2021/05/31 02:59:58;;;;;;;49.78;21.25;;;9.00;93.80;;;;;;5067553;28;20037;-54
2021/05/31 03:02:24;;;;;;;50.08;23.17;;;8.90;94.00;;;;;;5067752;28;20090;-53
2021/05/31 03:04:50;;;;;;;59.13;23.15;;;8.90;93.80;;;;;;5061026;28;20048;-56
2021/05/31 03:07:16;;;;;;;50.05;21.40;;;8.90;94.00;;;;;;5009690;28;20040;-53
2021/05/31 03:09:42;;;;;;;64.15;24.02;;;8.90;94.10;;;;;;5066429;28;20489;-55
2021/05/31 03:12:08;;;;;;;57.00;22.55;;;8.80;94.10;;;;;;5050113;28;20040;-57
2021/05/31 03:14:35;;;;;;;61.63;23.20;;;8.90;94.30;;;;;;5070276;28;20043;-54
2021/05/31 03:17:01;;;;;;;69.60;20.10;;;8.90;94.10;;;;;;5050027;28;20045;-54
2021/05/31 03:19:26;;;;;;;57.40;22.15;;;9.00;94.20;;;;;;5062153;28;20063;-53
2021/05/31 03:21:52;;;;;;;46.13;21.05;;;9.00;93.80;;;;;;5044184;28;20045;-55
2021/05/31 03:24:18;;;;;;;56.45;23.55;;;8.90;94.30;;;;;;5062946;28;20496;-51
2021/05/31 03:26:44;;;;;;;42.17;22.38;;;8.80;94.40;;;;;;5058599;28;20052;-55
2021/05/31 03:29:10;;;;;;;46.17;22.83;;;8.80;94.70;;;;;;5064283;28;20050;-53
2021/05/31 03:31:36;;;;;;;44.63;21.73;;;8.80;94.60;;;;;;5053470;28;20110;-54
2021/05/31 03:34:02;;;;;;;50.33;23.85;;;8.90;94.70;;;;;;5058247;28;20048;-53
2021/05/31 03:36:27;;;;;;;56.10;23.17;;;8.90;94.50;;;;;;5056176;28;20087;-54
2021/05/31 03:38:53;;;;;;;42.75;22.73;;;8.90;94.60;;;;;;5058631;28;20033;-54
2021/05/31 03:41:19;;;;;;;42.25;21.65;;;8.90;94.70;;;;;;5057184;28;20137;-53
2021/05/31 03:43:46;;;;;;;51.33;20.08;;;8.90;94.70;;;;;;5042281;28;20064;-54
2021/05/31 03:46:11;;;;;;;39.75;20.08;;;8.90;94.70;;;;;;5069501;28;20079;-53
2021/05/31 03:48:37;;;;;;;34.83;20.67;;;9.00;94.40;;;;;;5061027;28;20052;-52
2021/05/31 03:51:10;;;;;;;56.33;19.20;;;8.90;94.50;;;;;;5059746;28;20059;-56
2021/05/31 03:53:40;;;;;;;47.65;21.23;;;9.00;94.60;;;;;;5057541;28;20511;-54
2021/05/31 03:56:07;;;;;;;53.53;18.30;;;8.90;94.50;;;;;;5069406;28;20040;-54
2021/05/31 03:58:34;;;;;;;37.03;20.20;;;8.90;94.80;;;;;;5057552;28;20044;-56
2021/05/31 04:01:01;;;;;;;56.42;18.45;;;9.00;94.30;;;;;;5051318;28;20048;-52
2021/05/31 04:03:28;;;;;;;67.97;17.25;;;9.00;94.60;;;;;;5024637;28;20059;-55
2021/05/31 04:11:40;;;;;;;43.88;17.73;;;9.00;94.20;;;;;;5061121;28;20460;-55
2021/05/31 04:14:13;;;;;;;96.25;23.20;;;8.90;94.40;;;;;;5065612;28;20048;-53
2021/05/31 04:16:40;;;;;;;66.43;19.20;;;8.90;94.60;;;;;;5064296;28;20516;-55
2021/05/31 04:19:08;;;;;;;88.85;17.58;;;8.90;94.80;;;;;;5054169;28;20037;-54
2021/05/31 04:21:35;;;;;;;62.47;19.52;;;9.10;94.60;;;;;;5062710;28;20539;-51
2021/05/31 04:24:02;;;;;;;70.40;17.77;;;9.00;94.40;;;;;;5064026;28;20044;-55
2021/05/31 04:26:29;;;;;;;79.97;19.65;;;8.90;94.90;;;;;;5037292;28;20045;-53
2021/05/31 04:28:56;;;;;;;55.40;18.65;;;9.00;94.80;;;;;;5058653;28;20060;-50
2021/05/31 04:31:23;;;;;;;117.15;21.27;;;9.00;94.70;;;;;;5037244;28;20045;-55
2021/05/31 04:33:48;;;;;;;60.00;19.45;;;8.90;94.80;;;;;;5059421;28;20038;-53
2021/05/31 04:36:23;;;;;;;60.80;18.85;;;8.90;95.00;;;;;;5052436;28;20520;-52
2021/05/31 04:38:48;;;;;;;57.65;17.73;;;8.90;95.20;;;;;;5034964;28;20036;-52
2021/05/31 04:41:14;;;;;;;34.00;17.05;;;9.00;95.10;;;;;;5061897;28;20044;-53
2021/05/31 04:43:40;;;;;;;56.00;17.98;;;8.90;95.10;;;;;;5053060;28;20048;-56
2021/05/31 04:46:05;;;;;;;68.88;16.85;;;9.00;95.10;;;;;;5053155;28;20029;-53
2021/05/31 04:48:32;;;;;;;56.53;18.48;;;9.10;94.60;;;;;;5052559;28;20036;-54
2021/05/31 04:51:01;;;;;;;95.15;18.83;;;9.00;94.70;;;;;;5060856;28;20047;-53
2021/05/31 04:53:28;;;;;;;54.95;16.10;;;9.10;95.10;;;;;;5038995;28;20041;-54
2021/05/31 04:55:55;;;;;;;91.13;17.50;;;9.10;95.00;;;;;;5064942;28;20413;-50
2021/05/31 04:58:22;;;;;;;80.25;19.48;;;9.10;94.70;;;;;;5060424;28;20044;-51
2021/05/31 05:00:49;;;;;;;79.05;16.58;;;9.10;95.00;;;;;;5045066;28;20041;-55
2021/05/31 05:03:14;;;;;;;70.85;18.05;;;9.10;95.20;;;;;;5061829;28;20390;-57
2021/05/31 05:05:40;;;;;;;80.25;18.08;;;9.10;95.10;;;;;;5058305;28;20062;-54
2021/05/31 05:08:07;;;;;;;72.13;19.15;;;9.00;95.40;;;;;;5072438;28;20067;-51
2021/05/31 05:10:33;;;;;;;63.17;18.50;;;9.10;95.40;;;;;;5057961;28;20497;-56
2021/05/31 05:12:59;;;;;;;66.75;19.02;;;9.10;95.30;;;;;;5053849;28;20045;-54
2021/05/31 05:15:25;;;;;;;55.20;20.60;;;9.10;95.40;;;;;;5051908;28;20519;-54
2021/05/31 05:17:52;;;;;;;48.67;17.17;;;9.10;95.50;;;;;;5051609;28;20091;-54
2021/05/31 05:20:20;;;;;;;49.28;18.10;;;9.10;95.60;;;;;;5060614;28;20062;-53
2021/05/31 05:22:46;;;;;;;53.33;18.17;;;9.20;95.50;;;;;;5053595;28;20480;-54
2021/05/31 05:25:13;;;;;;;49.83;18.90;;;9.20;95.50;;;;;;5059055;28;20074;-54
2021/05/31 05:27:41;;;;;;;55.67;18.20;;;9.30;95.40;;;;;;5062177;28;20058;-54
2021/05/31 05:30:10;;;;;;;47.92;19.27;;;9.40;95.40;;;;;;5058538;28;20498;-55
2021/05/31 05:32:36;;;;;;;53.15;18.45;;;9.40;95.50;;;;;;5053739;28;20041;-54
2021/05/31 05:35:19;;;;;;;47.38;18.45;;;9.40;95.20;;;;;;5058032;28;20036;-54
2021/05/31 05:48:10;;;;;;;49.55;18.77;;;9.50;95.40;;;;;;5057715;28;20052;-52
2021/05/31 05:50:35;;;;;;;38.75;18.23;;;9.50;95.40;;;;;;5055922;28;20044;-57
2021/05/31 05:53:01;;;;;;;40.22;18.65;;;9.60;95.30;;;;;;5063367;28;20074;-54
2021/05/31 05:55:27;;;;;;;42.30;18.35;;;9.60;95.30;;;;;;5059649;28;20033;-59
2021/05/31 05:57:55;;;;;;;49.22;17.92;;;9.60;95.50;;;;;;5061915;28;20036;-54
2021/05/31 06:00:23;;;;;;;43.83;18.13;;;9.70;95.50;;;;;;5055928;28;20459;-55
2021/05/31 06:02:49;;;;;;;145.32;21.50;;;9.70;95.20;;;;;;5056932;28;20815;-54
2021/05/31 06:05:15;;;;;;;71.50;18.48;;;9.80;94.90;;;;;;5063927;28;20041;-54
2021/05/31 06:07:41;;;;;;;34.35;18.27;;;9.80;94.90;;;;;;5052071;28;20049;-56
2021/05/31 06:10:08;;;;;;;42.53;18.33;;;9.70;95.00;;;;;;5059055;28;20044;-55
2021/05/31 06:12:34;;;;;;;34.13;17.58;;;9.80;95.30;;;;;;5039814;28;20056;-57
2021/05/31 06:15:01;;;;;;;61.92;18.98;;;9.80;95.20;;;;;;5047610;28;20174;-57
2021/05/31 06:17:27;;;;;;;49.85;18.45;;;9.80;95.30;;;;;;5053931;28;20036;-53
2021/05/31 06:19:59;;;;;;;53.85;17.95;;;9.80;95.20;;;;;;5035004;28;20056;-57
2021/05/31 06:22:29;;;;;;;62.78;18.80;;;9.80;95.40;;;;;;5051534;28;20484;-55
2021/05/31 06:24:55;;;;;;;58.03;19.10;;;9.90;95.30;;;;;;5035909;28;20105;-57
2021/05/31 06:27:21;;;;;;;74.18;21.45;;;9.90;95.30;;;;;;5057897;28;20087;-55
2021/05/31 06:29:47;;;;;;;51.03;17.73;;;9.90;95.30;;;;;;5055038;28;20033;-55
2021/05/31 06:32:13;;;;;;;54.70;17.83;;;10.00;95.30;;;;;;5051771;28;20041;-53
2021/05/31 06:34:39;;;;;;;71.28;15.80;;;10.00;95.20;;;;;;5052577;28;20467;-53
2021/05/31 06:37:07;;;;;;;70.05;19.08;;;10.10;95.10;;;;;;5052735;28;20418;-54
2021/05/31 06:39:52;;;;;;;74.43;18.75;;;10.10;95.00;;;;;;5018283;28;20048;-55
2021/05/31 06:42:18;;;;;;;72.10;18.30;;;10.00;95.10;;;;;;5057301;28;20041;-54
2021/05/31 06:44:46;;;;;;;43.85;18.27;;;10.10;95.20;;;;;;5052782;28;20132;-52
2021/05/31 06:47:11;;;;;;;79.57;19.67;;;10.20;95.10;;;;;;5059024;28;20463;-51
2021/05/31 06:49:40;;;;;;;55.25;17.75;;;10.20;95.20;;;;;;5036787;28;20037;-53
2021/05/31 06:52:06;;;;;;;41.00;16.33;;;10.20;95.20;;;;;;5038051;28;20044;-54
2021/05/31 06:54:35;;;;;;;65.80;19.77;;;10.20;95.00;;;;;;5058504;28;21128;-55
2021/05/31 06:57:02;;;;;;;43.42;20.40;;;10.20;95.40;;;;;;5049305;28;20036;-52
2021/05/31 06:59:28;;;;;;;47.15;19.85;;;10.20;95.50;;;;;;5051741;28;20440;-54
2021/05/31 07:01:54;;;;;;;34.03;18.73;;;10.10;95.60;;;;;;5052575;28;20457;-54
2021/05/31 07:04:19;;;;;;;46.88;19.95;;;10.30;95.90;;;;;;5060438;28;20073;-55
2021/05/31 07:06:46;;;;;;;56.75;20.98;;;10.30;95.60;;;;;;5064335;28;20036;-55
2021/05/31 07:09:12;;;;;;;44.85;21.33;;;10.40;95.80;;;;;;5060621;28;20450;-56
2021/05/31 07:11:41;;;;;;;44.75;22.00;;;10.50;95.70;;;;;;5035838;28;20033;-55
2021/05/31 07:14:10;;;;;;;39.60;21.92;;;10.50;95.70;;;;;;5057502;28;20037;-57
2021/05/31 07:16:36;;;;;;;31.88;19.90;;;10.50;95.80;;;;;;5038565;28;20139;-55
2021/05/31 07:19:03;;;;;;;35.47;20.58;;;10.60;96.00;;;;;;5055736;28;20124;-56
2021/05/31 07:21:28;;;;;;;32.30;19.50;;;10.60;95.80;;;;;;5057868;28;20055;-54
2021/05/31 07:23:54;;;;;;;30.80;18.92;;;10.70;95.60;;;;;;5051060;28;20041;-55
2021/05/31 07:26:19;;;;;;;31.52;20.23;;;10.70;95.30;;;;;;5059716;28;20037;-55
2021/05/31 07:28:45;;;;;;;30.88;19.85;;;10.80;95.20;;;;;;5051088;28;20045;-55
2021/05/31 07:31:11;;;;;;;32.22;19.60;;;10.80;95.10;;;;;;5051074;28;20025;-55
2021/05/31 07:33:37;;;;;;;31.70;19.30;;;10.90;95.10;;;;;;5050265;28;20041;-53
2021/05/31 07:36:03;;;;;;;31.90;20.08;;;11.00;95.20;;;;;;5053543;28;20558;-53
2021/05/31 07:38:28;;;;;;;31.05;19.77;;;11.00;95.10;;;;;;5060580;28;20047;-57
2021/05/31 07:40:55;;;;;;;32.35;20.27;;;11.00;95.00;;;;;;5057513;28;20477;-58
2021/05/31 07:43:23;;;;;;;28.80;20.05;;;11.20;94.80;;;;;;5062173;28;20043;-58
2021/05/31 07:45:49;;;;;;;31.40;20.35;;;11.20;94.80;;;;;;5050312;28;20052;-58
2021/05/31 07:48:15;;;;;;;33.13;19.95;;;11.20;94.90;;;;;;5057840;28;20090;-58
2021/05/31 07:50:40;;;;;;;28.90;19.98;;;11.30;94.70;;;;;;5056921;28;20052;-57
2021/05/31 07:53:06;;;;;;;30.83;20.35;;;11.40;94.80;;;;;;5055703;28;20041;-56
2021/05/31 07:55:32;;;;;;;31.88;19.58;;;11.40;94.80;;;;;;5059137;28;20051;-57
2021/05/31 07:57:57;;;;;;;29.50;19.83;;;11.50;94.80;;;;;;5054917;28;20032;-58
2021/05/31 08:00:24;;;;;;;27.30;18.73;;;11.60;94.60;;;;;;5057432;28;20040;-58
2021/05/31 08:02:50;;;;;;;29.20;19.88;;;11.70;94.20;;;;;;5039343;28;20044;-57
2021/05/31 08:05:19;;;;;;;28.35;19.58;;;11.80;93.90;;;;;;5065964;28;20086;-57
2021/05/31 08:07:46;;;;;;;27.48;19.13;;;11.80;93.70;;;;;;5064841;28;20600;-58
2021/05/31 08:10:13;;;;;;;28.30;18.88;;;11.70;93.70;;;;;;5056699;28;20072;-55
2021/05/31 08:12:39;;;;;;;30.98;20.60;;;11.80;93.80;;;;;;5052728;28;20041;-55
2021/05/31 08:15:07;;;;;;;31.63;20.73;;;11.70;93.60;;;;;;5052800;28;20082;-59
2021/05/31 08:17:33;;;;;;;33.80;22.83;;;11.70;94.00;;;;;;5053533;28;20192;-58
2021/05/31 08:19:58;;;;;;;32.17;20.65;;;11.80;94.10;;;;;;5057483;28;20124;-58
2021/05/31 08:22:24;;;;;;;29.90;20.85;;;11.90;94.00;;;;;;5057299;28;20049;-57
2021/05/31 08:24:50;;;;;;;33.50;19.85;;;11.90;94.00;;;;;;5052262;28;20056;-58
2021/05/31 08:27:16;;;;;;;32.67;20.42;;;12.10;93.80;;;;;;5063923;28;20037;-58
2021/05/31 08:29:42;;;;;;;28.60;18.83;;;12.10;93.70;;;;;;5053807;28;20094;-58
2021/05/31 08:32:07;;;;;;;27.00;19.35;;;12.20;94.00;;;;;;5065841;28;20056;-57
2021/05/31 08:34:33;;;;;;;27.27;20.05;;;12.40;93.60;;;;;;5054554;28;20041;-58
2021/05/31 08:36:59;;;;;;;27.30;19.90;;;12.40;93.30;;;;;;5049230;28;20488;-58
2021/05/31 08:39:25;;;;;;;29.30;20.40;;;12.50;93.50;;;;;;5061166;28;20052;-58
2021/05/31 08:41:51;;;;;;;29.60;19.45;;;12.60;93.00;;;;;;5055961;28;20039;-58
2021/05/31 08:44:18;;;;;;;24.33;17.08;;;12.70;92.50;;;;;;5043285;28;20127;-58
2021/05/31 08:46:44;;;;;;;23.83;17.35;;;12.80;92.50;;;;;;5062591;28;20086;-58
2021/05/31 08:49:10;;;;;;;25.63;18.02;;;12.80;91.80;;;;;;5055158;28;20043;-58
2021/05/31 08:51:37;;;;;;;28.67;19.77;;;12.90;92.10;;;;;;5062361;28;20125;-58
2021/05/31 08:54:04;;;;;;;27.13;19.20;;;12.90;92.70;;;;;;5064314;28;20378;-58
2021/05/31 08:56:31;;;;;;;28.13;19.77;;;13.10;92.80;;;;;;5068266;28;20040;-56
2021/05/31 08:58:57;;;;;;;29.05;19.80;;;13.30;92.40;;;;;;5064454;28;20041;-56
2021/05/31 09:01:24;;;;;;;26.23;19.73;;;13.40;91.40;;;;;;5052510;28;20048;-55
2021/05/31 09:03:52;;;;;;;27.23;19.60;;;13.40;91.80;;;;;;5034811;28;20045;-55
2021/05/31 09:06:18;;;;;;;28.17;19.75;;;13.40;91.70;;;;;;5054036;28;20052;-56
2021/05/31 09:08:59;;;;;;;28.95;20.60;;;13.50;91.80;;;;;;5056040;28;20486;-56
2021/05/31 09:11:28;;;;;;;26.10;19.83;;;13.60;91.80;;;;;;5038346;28;20102;-56
2021/05/31 09:13:55;;;;;;;26.17;18.95;;;13.70;91.70;;;;;;5055260;28;20072;-56
2021/05/31 09:16:28;;;;;;;24.88;19.30;;;13.90;91.10;;;;;;5044734;28;20063;-57
2021/05/31 09:19:04;;;;;;;25.23;17.75;;;14.00;91.00;;;;;;5054316;28;20047;-56
2021/05/31 09:21:32;;;;;;;23.55;18.13;;;14.10;90.20;;;;;;5057673;28;20064;-56
2021/05/31 09:24:08;;;;;;;23.30;16.95;;;14.30;89.40;;;;;;5041261;28;20045;-57
2021/05/31 09:26:59;;;;;;;26.33;19.10;;;14.30;88.70;;;;;;5056694;28;20056;-57
2021/05/31 09:29:26;;;;;;;27.50;18.67;;;14.40;90.00;;;;;;5058415;28;20049;-57
2021/05/31 09:32:04;;;;;;;29.50;19.67;;;14.50;89.70;;;;;;5060734;28;20091;-57
2021/05/31 09:34:31;;;;;;;23.40;17.58;;;14.60;87.80;;;;;;5030779;28;20513;-55
2021/05/31 09:37:00;;;;;;;24.33;17.95;;;14.70;88.70;;;;;;5053804;28;20448;-57
2021/05/31 09:39:31;;;;;;;26.13;19.15;;;14.90;89.20;;;;;;5053289;28;20049;-57
2021/05/31 09:42:12;;;;;;;25.25;17.55;;;15.00;88.70;;;;;;5056008;28;20040;-57
2021/05/31 09:44:38;;;;;;;24.70;18.13;;;15.20;87.60;;;;;;5037461;28;20059;-57
2021/05/31 09:47:04;;;;;;;25.10;18.13;;;15.30;87.20;;;;;;5047674;28;20048;-57
2021/05/31 09:49:30;;;;;;;23.83;18.20;;;15.40;87.00;;;;;;5027893;28;20049;-57
2021/05/31 09:52:00;;;;;;;25.20;18.23;;;15.50;85.90;;;;;;5058528;28;20044;-57
2021/05/31 09:54:43;;;;;;;23.42;17.67;;;15.60;84.80;;;;;;5050268;28;20037;-57
2021/05/31 09:57:25;;;;;;;24.63;17.33;;;15.70;85.40;;;;;;5058034;28;20044;-57
2021/05/31 09:59:57;;;;;;;22.42;17.30;;;15.90;84.00;;;;;;5057960;28;20043;-57
2021/05/31 10:10:40;;;;;;;24.05;17.17;;;16.50;84.00;;;;;;5062165;28;20493;-57
2021/05/31 10:13:06;;;;;;;22.05;17.13;;;16.60;84.50;;;;;;5051666;28;20105;-56
2021/05/31 10:15:41;;;;;;;22.65;16.50;;;16.80;82.70;;;;;;5044369;28;20045;-57
2021/05/31 10:18:09;;;;;;;19.10;15.88;;;16.80;81.10;;;;;;5061943;28;21968;-57
2021/05/31 10:20:39;;;;;;;20.85;16.02;;;16.90;82.00;;;;;;5056991;28;20128;-56
2021/05/31 10:23:06;;;;;;;19.00;13.85;;;17.00;81.80;;;;;;5032063;28;20170;-57
2021/05/31 10:25:33;;;;;;;16.40;14.05;;;17.20;77.20;;;;;;5055076;28;20064;-58
2021/05/31 10:28:21;;;;;;;18.65;14.25;;;17.40;79.10;;;;;;5056864;28;20051;-55
2021/05/31 10:30:56;;;;;;;19.42;14.82;;;17.50;75.80;;;;;;5051197;28;20060;-57
2021/05/31 10:33:24;;;;;;;15.52;13.00;;;17.50;77.60;;;;;;5045854;28;20040;-57
2021/05/31 10:35:52;;;;;;;17.85;13.20;;;17.60;76.30;;;;;;5040408;28;20171;-58
2021/05/31 10:38:22;;;;;;;18.25;13.73;;;17.70;76.70;;;;;;5050505;28;20037;-57
2021/05/31 10:40:50;;;;;;;17.42;13.82;;;18.00;75.90;;;;;;5050657;28;20132;-57
2021/05/31 10:43:21;;;;;;;18.33;13.10;;;18.10;75.70;;;;;;5050491;28;20557;-55
2021/05/31 10:45:48;;;;;;;15.32;13.00;;;18.30;76.20;;;;;;5061401;28;20048;-57
2021/05/31 10:48:19;;;;;;;15.63;13.25;;;18.50;74.00;;;;;;5057021;28;20104;-57
2021/05/31 10:51:01;;;;;;;16.15;11.65;;;18.50;73.60;;;;;;5061098;28;20041;-57
2021/05/31 10:53:33;;;;;;;13.00;10.35;;;18.50;73.50;;;;;;5042690;28;20056;-58
2021/05/31 10:56:09;;;;;;;13.95;10.38;;;18.70;72.30;;;;;;5065949;28;20043;-58
2021/05/31 10:58:36;;;;;;;14.25;10.20;;;18.90;69.60;;;;;;5067834;28;20078;-57
2021/05/31 11:01:07;;;;;;;12.88;9.80;;;19.00;69.30;;;;;;5065319;28;20035;-57
2021/05/31 11:04:03;;;;;;;12.98;10.90;;;19.20;66.60;;;;;;5068768;28;20123;-57
2021/05/31 11:06:43;;;;;;;10.55;8.43;;;19.30;67.00;;;;;;5051176;28;20056;-55
2021/05/31 11:09:21;;;;;;;11.13;7.53;;;19.30;64.00;;;;;;5056503;28;20033;-58
2021/05/31 11:11:54;;;;;;;9.77;7.25;;;19.40;62.80;;;;;;5061515;28;20277;-58
2021/05/31 11:14:40;;;;;;;9.95;6.90;;;19.50;61.20;;;;;;5032120;28;20497;-58
2021/05/31 11:17:13;;;;;;;9.75;7.15;;;19.70;61.70;;;;;;5041090;28;20040;-58
2021/05/31 11:19:41;;;;;;;9.68;6.90;;;19.80;60.50;;;;;;5056767;28;20048;-58
2021/05/31 11:22:25;;;;;;;8.00;6.47;;;19.90;60.40;;;;;;5063767;28;20124;-58
2021/05/31 11:25:08;;;;;;;11.70;6.53;;;20.00;57.70;;;;;;5063138;28;20071;-57
2021/05/31 11:27:39;;;;;;;8.95;5.97;;;20.20;60.40;;;;;;5061140;28;20072;-58
2021/05/31 11:30:17;;;;;;;7.85;5.72;;;20.20;58.00;;;;;;5038800;28;20089;-57
2021/05/31 11:32:43;;;;;;;6.72;5.18;;;20.30;58.00;;;;;;5058340;28;20057;-57
2021/05/31 11:35:13;;;;;;;6.93;4.93;;;20.40;55.30;;;;;;5060926;28;20043;-56
2021/05/31 11:37:42;;;;;;;8.63;5.68;;;20.50;57.10;;;;;;5016985;28;20468;-57
2021/05/31 11:40:24;;;;;;;9.15;5.13;;;20.50;52.80;;;;;;5065005;28;20090;-55
2021/05/31 11:42:53;;;;;;;6.78;5.10;;;20.60;54.30;;;;;;5062516;28;20044;-55
2021/05/31 11:45:22;;;;;;;5.90;4.47;;;20.60;53.10;;;;;;5055167;28;20548;-57
2021/05/31 11:48:01;;;;;;;5.13;3.65;;;20.70;51.00;;;;;;5062329;28;20044;-56
2021/05/31 11:50:31;;;;;;;;;;;20.80;47.30;;;;;;5054920;28;20459;-55
2021/05/31 11:52:56;;;;;;;6.97;3.47;;;20.90;46.20;;;;;;5073898;28;19917;-55
2021/05/31 11:55:28;;;;;;;5.28;3.50;;;20.90;45.50;;;;;;5058563;28;20072;-58
2021/05/31 11:57:55;;;;;;;7.90;3.80;;;21.00;45.40;;;;;;5058045;28;20682;-58
2021/05/31 12:00:25;;;;;;;5.55;4.05;;;21.00;46.90;;;;;;5060170;28;20045;-58
2021/05/31 12:02:54;;;;;;;7.43;3.85;;;21.00;47.40;;;;;;5063103;28;20052;-57
2021/05/31 12:05:36;;;;;;;8.57;4.15;;;21.20;43.10;;;;;;5046778;28;20059;-57
2021/05/31 12:08:03;;;;;;;8.57;4.90;;;21.20;43.30;;;;;;5051335;28;20097;-58
2021/05/31 12:10:29;;;;;;;8.05;4.90;;;21.20;44.10;;;;;;5058095;28;20132;-58
2021/05/31 12:12:55;;;;;;;6.72;5.38;;;21.20;46.30;;;;;;5061161;28;20131;-58
2021/05/31 12:15:24;;;;;;;10.63;6.20;;;21.30;45.00;;;;;;5062276;28;20043;-58
2021/05/31 12:17:54;;;;;;;7.90;5.78;;;21.30;45.70;;;;;;5054419;28;20493;-58
2021/05/31 12:20:30;;;;;;;9.23;5.78;;;21.30;47.70;;;;;;5047878;28;20362;-58
2021/05/31 12:22:57;;;;;;;9.20;6.90;;;21.30;47.40;;;;;;5050328;28;20482;-57
2021/05/31 12:25:22;;;;;;;9.63;7.07;;;21.40;47.50;;;;;;5071979;28;20499;-55
2021/05/31 12:27:50;;;;;;;10.38;6.32;;;21.40;46.90;;;;;;5057306;28;20033;-58
2021/05/31 12:30:17;;;;;;;12.27;6.80;;;21.40;49.10;;;;;;5055486;28;20037;-57
2021/05/31 12:32:45;;;;;;;9.57;6.55;;;21.40;48.40;;;;;;5041230;28;20261;-57
2021/05/31 12:35:12;;;;;;;9.68;7.40;;;21.50;50.90;;;;;;5064784;28;20041;-57
2021/05/31 12:37:42;;;;;;;11.85;7.85;;;21.60;49.60;;;;;;5053214;28;20037;-57
2021/05/31 12:40:17;;;;;;;9.75;7.00;;;21.70;49.50;;;;;;5061115;28;20052;-56
2021/05/31 12:42:47;;;;;;;8.82;6.05;;;21.70;50.50;;;;;;5056489;28;20457;-56
2021/05/31 12:45:18;;;;;;;9.02;5.70;;;21.70;47.70;;;;;;5055101;28;20037;-57
2021/05/31 12:47:49;;;;;;;10.82;7.20;;;21.80;48.20;;;;;;5061359;28;20072;-56
2021/05/31 12:50:30;;;;;;;9.50;6.93;;;21.90;46.60;;;;;;5034757;28;20513;-56
2021/05/31 12:53:11;;;;;;;10.30;6.88;;;21.90;47.00;;;;;;5053745;28;20056;-56
2021/05/31 12:55:38;;;;;;;12.52;7.95;;;21.90;48.20;;;;;;5044882;28;20167;-57
2021/05/31 12:58:12;;;;;;;12.60;7.85;;;22.00;47.00;;;;;;5057183;28;20029;-56
2021/05/31 13:00:39;;;;;;;8.70;6.65;;;21.90;47.60;;;;;;5071487;28;20063;-57
2021/05/31 13:03:05;;;;;;;13.07;6.60;;;21.90;48.50;;;;;;5063215;28;20131;-56
2021/05/31 13:05:34;;;;;;;9.70;6.15;;;22.00;47.40;;;;;;5063672;28;20139;-56
2021/05/31 13:08:03;;;;;;;8.10;5.97;;;22.00;45.60;;;;;;5060017;28;20048;-56